Historyczne dane pomiarowe

Dodano dane terminowe – wersja testowa.

Dane z okresu 1951-2019

Wersja bazy: 1.34 [2019-03-16, lista zmian], aktualizacja planowana na 2019-04-15

Dane meteo z obszaru Polski uzyskane na podstawie danych udostępnionych przez Instytut Meteorologii i Gospodarki Wodnej – Państwowy Instytut Badawczy.

 

Wybierz Datę:    

       

TemperaturaWilgotnośćWiatrCiśnienieOpadyŚniegCzas trwania zjawisk
 Stacja t tx tn tng RH VA  wxwx mslp ppp RRR   cm mm wxwxwxwxwxwxwx
1961-08-14 15.6 20.3 9.0 5.9 77.3- 3.7 1.0---- 0.0------------
1961-08-13 14.1 18.2 12.3 14.0 93.3- 7.0 3.0---- 7.2------------
1961-08-12 18.3 21.6 16.3 16.6 86.5- 7.3 2.0---- 1.0------------
1961-08-11 21.8 29.8 17.9 16.4 83.0- 3.7 1.7---- 12.1------------
1961-08-10 21.9 26.4 17.2 15.7 80.0- 5.3 2.0---- 6.9------------
1961-08-09 21.6 28.9 16.0 12.9 73.0- 1.3 1.0---- 0.7------------
1961-08-08 19.3 24.2 15.6 15.3 64.8- 5.3 1.3---- 0.0------------
1961-08-07 22.6 30.3 16.8 15.5 73.8- 3.3 3.0---- 1.4------------
1961-08-06 22.3 29.7 12.3 10.0 70.5- 0.7 2.0---- 0.0------------
1961-08-05 17.3 23.1 14.7 14.2 77.8- 4.0 2.0---- 0.0------------
1961-08-04 16.8 21.9 11.8 10.9 70.5- 7.0 2.7---- 0.0------------
1961-08-03 19.7 27.3 12.6 9.0 74.5- 4.7 3.3---- 34.0------------
1961-08-02 18.8 25.5 8.7 5.5 67.8- 1.3 1.7---- 0.0------------
1961-08-01 15.2 18.6 10.7 9.2 78.0- 7.3 4.0---- 0.0------------
1961-07-31 14.8 19.6 13.5 13.5 84.0- 5.0 3.7---- 0.1------------
1961-07-30 15.5 17.2 12.4 12.7 96.8- 8.0 3.0---- 31.6------------
1961-07-29 15.2 19.8 14.3 12.8 92.5- 8.0 2.3---- 8.8------------
1961-07-28 21.0 28.1 16.7 15.6 71.3- 7.3 2.3---- 0.4------------
1961-07-27 21.1 26.8 13.5 11.2 58.8- 4.7 2.7---- 0.0------------
1961-07-26 16.1 19.7 12.6 12.3 73.5- 7.0 2.7---- 0.0------------
1961-07-25 15.9 21.1 12.0 9.7 70.0- 4.7 3.7---- 0.0------------
1961-07-24 15.0 20.4 12.5 11.3 73.0- 5.3 2.3---- 0.0------------
1961-07-23 16.1 19.4 10.4 7.5 72.5- 6.0 1.3---- 0.0------------
1961-07-22 15.6 20.4 12.0 10.8 77.5- 6.0 3.0---- 2.4------------
1961-07-21 16.5 23.6 12.9 10.5 77.8- 4.0 3.0---- 0.7------------
1961-07-20 18.2 24.1 8.6 4.3 71.5- 5.3 0.7---- 0.0------------
1961-07-19 16.2 24.2 8.0 4.5 75.8- 4.3 1.0---- 0.0------------
1961-07-18 14.2 18.6 10.1 6.1 78.5- 2.7 2.0---- 0.0------------
1961-07-17 16.7 23.6 12.0 11.9 76.0- 5.3 1.7---- 2.2------------
1961-07-16 18.0 24.9 9.5 5.0 77.5- 6.0 3.0---- 0.0------------
1961-07-15 17.4 23.7 10.4 8.0 70.3- 4.7 1.3---- 0.0------------
1961-07-14 17.0 23.0 15.1 16.3 67.8- 7.0 4.3---- 0.0------------
1961-07-13 23.1 29.7 12.9 8.8 63.0- 2.7 2.0---- 0.0------------
1961-07-12 19.2 25.2 9.4 6.0 68.8- 4.0 1.3---- 0.3------------
1961-07-11 16.1 21.8 10.4 8.4 63.8- 4.0 2.0---- 0.0------------
1961-07-10 14.3 19.6 11.9 11.2 77.5- 7.3 3.0---- 0.3------------
1961-07-09 17.2 24.1 7.8 4.0 65.5- 4.0 3.0---- 0.3------------
1961-07-08 15.2 20.9 8.0 5.4 67.3- 4.0 1.0---- 0.0------------
1961-07-07 14.6 19.3 9.8 6.5 70.5- 6.0 2.3---- 0.5------------
1961-07-06 14.4 19.8 8.4 3.6 61.5- 3.0 2.0---- 0.0------------
1961-07-05 16.6 22.6 14.8 14.8 64.5- 5.7 3.3---- 0.0------------
1961-07-04 23.4 29.6 15.8 12.0 53.0- 2.7 3.0---- 0.0------------
1961-07-03 22.8 30.7 12.1 8.2 58.8- 0.0 0.7---- 0.0------------
1961-07-02 21.2 28.7 10.5 6.2 59.0- 0.0 1.0---- 0.0------------
1961-07-01 18.8 24.3 10.4 5.5 69.3- 0.3 2.0---- 0.0------------
1961-06-30 19.0 24.8 8.6 6.0 71.8- 0.0 2.7---- 0.0------------
1961-06-29 15.6 20.0 8.0 5.6 73.8- 2.7 3.0---- 0.0------------
1961-06-28 15.8 23.2 13.0 16.7 82.0- 4.3 2.7---- 13.0------------
1961-06-27 24.2 32.3 16.4 14.5 65.3- 3.0 2.3---- 0.0------------
1961-06-26 22.5 30.4 13.3 10.4 66.5- 3.0 2.0---- 0.0------------
1961-06-25 20.9 28.1 11.8 8.5 60.0- 1.3 2.7---- 0.0------------
1961-06-24 17.8 24.1 11.4 6.9 63.0- 5.3 2.7---- 0.0------------
1961-06-23 16.4 22.3 12.4 9.3 82.5- 5.3 1.3---- 6.9------------
1961-06-22 15.9 21.1 10.0 5.0 65.3- 3.0 3.0---- 0.0------------
1961-06-21 16.8 22.2 5.8 1.1 59.0- 3.3 2.0---- 0.5------------
1961-06-20 14.5 20.6 8.9 4.5 65.5- 0.7 2.7---- 0.0------------
1961-06-19 18.5 23.1 14.2 10.5 81.0- 3.7 2.3---- 0.0------------
1961-06-18 19.0 22.6 12.0 8.9 67.0- 5.3 1.3---- 0.0------------
1961-06-17 16.9 21.9 10.5 8.8 68.5- 6.3 2.7---- 0.0------------
1961-06-16 13.0 16.9 9.5 7.0 91.3- 8.0 2.3---- 0.9------------
1136.8 ms

 

Źródłem pochodzenia danych jest Instytut Meteorologii i Gospodarki Wodnej – Państwowy Instytut Badawczy. Dane Instytutu Meteorologii i Gospodarki Wodnej – Państwowego Instytutu Badawczego zostały przetworzone.

Dane źródłowe można odnaleźć na stronie https://dane.imgw.pl